エルモシージョ の空港の天気 - METARとTAF

ヘネラル・イグナシオ・ペスケイラ・ガルシア国際空港 ( MMHO / HMO ) - メキシコ ソノラ州エルモシージョ
飛行場実況気象(Metar)
観測時間01/22 17:40 MST (01/23 00:40 UTC)
風向・風速静穏 0m/s
視程10km以上
天気現象
なし
気温21℃
湿度53%
気圧1015hPa
METARMMHO 230040Z 00000KT 10SM SKC 21/11 A2998 RMK ISOL CU HZY
過去の天気等 Google飛行場航空写真 Wunderground天気予報

過去48時間のMETAR

飛行場予報(TAF)
発表時間: 1/22 09:54 MST (1/22 16:54 UTC)
予報対象時間: 22日11時 MST ~ 23日11時 MST
風向・風速南西 5m/s
視程10km以上
なし
22日18時 MST ~ 22日19時 MST に徐々に
風向・風速静穏
23日10時 MST から
風向・風速南西 5m/s
視程10km以上
なし
TAF MMHO 221654Z 2218/2318 23010KT P6SM SKC
BECMG 2301/2302 00000KT
FM231700 23010KT P6SM SKC